Time;durP1;ratioP1;P1;durP2;ratioP2;P2;SDS_P1;SDS_P2;PMS_P1;PMS_P2;Temp;Humidity;BMP_temperature;BMP_pressure;BME280_temperature;BME280_humidity;BME280_pressure;Samples;Min_cycle;Max_cycle;Signal;HPM_P1;HPM_P2
2023/10/15 00:00:47;;;;;;;0.75;0.20;;;8.30;99.90;;;;;;5080829;28;20052;-38
2023/10/15 00:03:12;;;;;;;2.08;0.10;;;8.30;99.90;;;;;;5085408;28;20113;-33
2023/10/15 00:05:38;;;;;;;0.60;0.20;;;8.30;99.90;;;;;;5061906;28;20770;-33
2023/10/15 00:08:04;;;;;;;1.15;0.10;;;8.30;99.90;;;;;;5081946;28;20049;-33
2023/10/15 00:10:34;;;;;;;0.75;0.20;;;8.40;99.90;;;;;;5060228;28;20051;-33
2023/10/15 00:13:00;;;;;;;0.20;0.10;;;8.40;99.90;;;;;;5084648;28;20520;-33
2023/10/15 00:15:29;;;;;;;1.05;0.20;;;8.40;99.90;;;;;;5082589;28;20063;-33
2023/10/15 00:18:02;;;;;;;2.50;0.30;;;8.40;99.90;;;;;;5083948;28;20043;-33
2023/10/15 00:20:32;;;;;;;1.70;0.30;;;8.40;99.90;;;;;;5083938;28;20126;-34
2023/10/15 00:23:04;;;;;;;1.02;0.30;;;8.40;99.90;;;;;;5083354;28;20387;-33
2023/10/15 00:25:37;;;;;;;0.90;0.30;;;8.40;99.90;;;;;;5063167;28;20065;-34
2023/10/15 00:28:05;;;;;;;3.30;0.30;;;8.40;99.90;;;;;;5072185;28;20549;-34
2023/10/15 00:30:32;;;;;;;3.17;0.30;;;8.30;99.90;;;;;;5059783;28;20048;-34
2023/10/15 00:33:06;;;;;;;2.20;0.30;;;8.20;99.90;;;;;;5055660;28;20552;-33
2023/10/15 00:35:33;;;;;;;3.03;0.20;;;8.00;99.90;;;;;;5060276;28;20491;-33
2023/10/15 00:38:15;;;;;;;2.40;0.35;;;7.90;99.90;;;;;;5069226;28;20608;-33
2023/10/15 00:40:41;;;;;;;2.85;0.30;;;7.90;99.90;;;;;;5056931;28;20113;-33
2023/10/15 00:43:07;;;;;;;1.75;0.17;;;7.80;99.90;;;;;;5059186;28;20044;-33
2023/10/15 00:45:44;;;;;;;0.73;0.10;;;7.60;99.90;;;;;;5042722;28;20499;-33
2023/10/15 00:48:13;;;;;;;1.33;0.20;;;7.60;99.90;;;;;;5057572;28;20048;-33
2023/10/15 00:50:40;;;;;;;2.72;0.22;;;7.60;99.90;;;;;;5049069;28;20060;-33
2023/10/15 00:53:25;;;;;;;0.90;0.20;;;7.50;99.90;;;;;;5056879;28;20076;-33
2023/10/15 00:56:02;;;;;;;1.40;0.25;;;7.50;99.90;;;;;;5043013;28;20064;-34
2023/10/15 00:58:31;;;;;;;2.92;0.20;;;7.50;99.90;;;;;;5042502;28;20079;-33
2023/10/15 01:03:59;;;;;;;3.13;0.10;;;7.40;99.90;;;;;;5054158;28;20057;-33
2023/10/15 01:09:09;;;;;;;1.55;0.10;;;7.30;99.90;;;;;;5048126;28;20040;-33
2023/10/15 01:11:51;;;;;;;2.70;0.25;;;7.30;99.90;;;;;;5052710;28;20641;-33
2023/10/15 01:14:26;;;;;;;0.50;0.20;;;7.20;99.90;;;;;;5051322;28;20063;-33
2023/10/15 01:16:52;;;;;;;1.08;0.20;;;7.20;99.90;;;;;;5037928;28;20099;-33
2023/10/15 01:19:20;;;;;;;1.02;0.10;;;7.20;99.90;;;;;;5057894;28;20070;-34
2023/10/15 01:21:57;;;;;;;7.10;1.02;;;7.20;99.90;;;;;;5062377;28;20663;-34
2023/10/15 01:24:33;;;;;;;1.55;0.20;;;7.20;99.90;;;;;;5053552;28;20076;-34
2023/10/15 01:29:28;;;;;;;2.55;0.25;;;7.20;99.90;;;;;;5059925;28;20048;-33
2023/10/15 01:32:03;;;;;;;1.83;0.15;;;7.30;99.90;;;;;;5064454;28;20142;-33
2023/10/15 01:34:37;;;;;;;1.95;0.13;;;7.30;99.90;;;;;;5059201;28;21148;-33
2023/10/15 01:39:53;;;;;;;1.90;0.43;;;7.20;99.90;;;;;;5056796;28;20079;-33
2023/10/15 01:48:03;;;;;;;1.92;0.38;;;7.40;99.90;;;;;;5057296;28;20052;-33
2023/10/15 01:50:34;;;;;;;2.88;0.40;;;7.50;99.90;;;;;;5041048;28;20473;-33
2023/10/15 01:53:04;;;;;;;2.05;0.20;;;7.40;99.90;;;;;;5057194;28;20243;-33
2023/10/15 01:55:30;;;;;;;2.35;0.30;;;7.40;99.90;;;;;;5051878;28;20057;-33
2023/10/15 01:58:00;;;;;;;2.55;0.30;;;7.40;99.90;;;;;;5055072;28;20116;-33
2023/10/15 02:03:04;;;;;;;2.05;0.20;;;7.50;99.90;;;;;;5061201;28;20055;-33
2023/10/15 02:05:41;;;;;;;1.48;0.20;;;7.50;99.90;;;;;;5058918;28;20057;-33
2023/10/15 02:08:16;;;;;;;1.05;0.22;;;7.50;99.90;;;;;;5062277;28;20057;-34
2023/10/15 02:10:47;;;;;;;1.88;0.30;;;7.50;99.90;;;;;;5045628;28;20040;-33
2023/10/15 02:13:16;;;;;;;2.17;0.40;;;7.50;99.90;;;;;;5058324;28;20506;-33
2023/10/15 02:15:46;;;;;;;3.67;0.30;;;7.50;99.90;;;;;;5060872;28;20521;-33
2023/10/15 02:18:17;;;;;;;1.27;0.30;;;7.50;99.90;;;;;;5062929;28;20106;-33
2023/10/15 02:23:15;;;;;;;2.97;0.40;;;7.40;99.90;;;;;;5061814;28;20055;-33
2023/10/15 02:25:47;;;;;;;2.38;0.32;;;7.40;99.90;;;;;;5080145;28;20777;-33
2023/10/15 02:28:32;;;;;;;1.70;0.20;;;7.30;99.90;;;;;;5080611;28;20792;-33
2023/10/15 02:31:22;;;;;;;1.30;0.32;;;7.30;99.90;;;;;;5082919;28;20744;-33
2023/10/15 02:33:45;;;;;;;0.98;0.20;;;7.20;99.90;;;;;;5085270;28;20070;-32
2023/10/15 02:36:15;;;;;;;3.65;0.40;;;7.20;99.90;;;;;;5087268;28;20510;-33
2023/10/15 02:38:52;;;;;;;3.10;0.40;;;7.20;99.90;;;;;;5082728;28;20052;-33
2023/10/15 02:41:19;;;;;;;2.40;0.25;;;7.20;99.90;;;;;;5083758;28;20052;-33
2023/10/15 02:44:12;;;;;;;2.65;0.38;;;7.10;99.90;;;;;;5083451;28;20054;-33
2023/10/15 02:48:58;;;;;;;4.13;3.58;;;7.10;99.90;;;;;;5084296;28;20048;-33
2023/10/15 02:51:24;;;;;;;3.80;3.50;;;7.00;99.90;;;;;;5082222;28;20048;-33
2023/10/15 02:53:55;;;;;;;4.85;2.95;;;7.00;99.90;;;;;;5085398;28;20081;-33
2023/10/15 02:56:21;;;;;;;3.00;2.65;;;7.00;99.90;;;;;;5064216;28;20098;-33
2023/10/15 02:58:49;;;;;;;4.03;3.53;;;7.00;99.90;;;;;;5082980;28;20551;-33
2023/10/15 03:01:23;;;;;;;4.53;4.15;;;6.90;99.90;;;;;;5062076;28;20043;-38
2023/10/15 03:03:52;;;;;;;6.05;5.57;;;6.90;99.90;;;;;;5084616;28;20416;-33
2023/10/15 03:06:19;;;;;;;5.50;4.85;;;6.80;99.90;;;;;;5082756;28;20093;-33
2023/10/15 03:08:48;;;;;;;3.22;2.53;;;6.80;99.90;;;;;;5084250;28;20842;-33
2023/10/15 03:11:18;;;;;;;4.38;0.40;;;6.90;99.90;;;;;;5084766;28;20498;-33
2023/10/15 03:13:50;;;;;;;2.47;0.20;;;6.90;99.90;;;;;;5082279;28;20103;-33
2023/10/15 03:16:30;;;;;;;3.13;2.30;;;7.00;99.90;;;;;;5081646;28;20056;-33
2023/10/15 03:18:56;;;;;;;2.83;1.67;;;7.00;99.90;;;;;;5065745;28;20066;-32
2023/10/15 03:21:26;;;;;;;2.75;0.45;;;7.00;99.90;;;;;;5080080;28;20047;-33
2023/10/15 03:23:56;;;;;;;1.55;0.30;;;7.00;99.90;;;;;;5066171;28;20076;-33
2023/10/15 03:26:32;;;;;;;1.23;0.20;;;7.10;99.90;;;;;;5075467;28;20131;-33
2023/10/15 03:28:59;;;;;;;3.85;0.68;;;7.10;99.90;;;;;;5082444;28;21483;-33
2023/10/15 03:31:27;;;;;;;3.00;0.32;;;7.20;99.90;;;;;;5081723;28;20433;-33
2023/10/15 03:36:42;;;;;;;2.47;0.40;;;7.30;99.90;;;;;;5080708;28;20075;-33
2023/10/15 03:39:15;;;;;;;2.22;0.35;;;7.30;99.90;;;;;;5082097;28;20493;-33
2023/10/15 03:41:46;;;;;;;3.60;0.30;;;7.30;99.90;;;;;;5076935;28;20048;-33
2023/10/15 03:44:11;;;;;;;6.47;0.43;;;7.30;99.90;;;;;;5081050;28;20521;-33
2023/10/15 03:46:38;;;;;;;3.75;0.40;;;7.30;99.90;;;;;;5080831;28;20052;-33
2023/10/15 03:49:07;;;;;;;1.85;0.30;;;7.30;99.90;;;;;;5080367;28;20048;-33
2023/10/15 03:51:48;;;;;;;2.90;0.40;;;7.30;99.90;;;;;;5076664;28;20494;-42
2023/10/15 03:54:14;;;;;;;1.95;0.40;;;7.20;99.90;;;;;;5058838;28;20131;-43
2023/10/15 03:56:43;;;;;;;2.97;0.30;;;7.20;99.90;;;;;;5049887;28;20048;-42
2023/10/15 03:59:11;;;;;;;3.17;0.28;;;7.20;99.90;;;;;;5074836;28;20054;-43
2023/10/15 04:01:43;;;;;;;1.88;0.22;;;7.10;99.90;;;;;;5077344;28;20085;-43
2023/10/15 04:04:09;;;;;;;3.17;0.40;;;7.10;99.90;;;;;;5065233;28;20055;-42
2023/10/15 04:06:35;;;;;;;0.88;0.20;;;7.10;99.90;;;;;;5078735;28;20448;-44
2023/10/15 04:11:29;;;;;;;1.58;0.40;;;6.90;99.90;;;;;;5067307;28;20045;-43
2023/10/15 04:14:11;;;;;;;6.47;5.97;;;6.90;99.90;;;;;;5064429;28;20427;-42
2023/10/15 04:16:37;;;;;;;10.20;9.50;;;6.90;99.90;;;;;;5064100;28;20193;-41
2023/10/15 04:19:03;;;;;;;8.45;7.82;;;6.80;99.90;;;;;;5054097;28;20294;-43
2023/10/15 04:21:29;;;;;;;8.07;7.47;;;6.90;99.90;;;;;;5073331;28;20044;-43
2023/10/15 04:23:56;;;;;;;4.88;4.43;;;6.90;99.90;;;;;;5070404;28;20490;-43
2023/10/15 04:26:28;;;;;;;2.95;2.38;;;6.90;99.90;;;;;;5026831;28;20071;-42
2023/10/15 04:28:54;;;;;;;5.07;4.10;;;6.90;99.90;;;;;;5059521;28;20044;-43
2023/10/15 04:31:23;;;;;;;4.00;2.33;;;6.90;99.90;;;;;;5062588;28;20060;-43
2023/10/15 04:33:53;;;;;;;4.15;2.45;;;6.90;99.90;;;;;;5062092;28;20505;-43
2023/10/15 04:36:19;;;;;;;2.15;2.05;;;7.00;99.90;;;;;;5058916;28;20052;-43
2023/10/15 04:38:45;;;;;;;3.38;2.65;;;7.00;99.90;;;;;;5060805;28;20052;-43
2023/10/15 04:41:10;;;;;;;4.60;2.15;;;7.00;99.90;;;;;;5059868;28;20510;-43
2023/10/15 04:43:46;;;;;;;3.50;2.28;;;7.10;99.90;;;;;;5058556;28;20067;-43
2023/10/15 04:46:18;;;;;;;6.22;2.97;;;7.10;99.90;;;;;;5060981;28;20052;-40
2023/10/15 04:48:47;;;;;;;;;;;7.20;99.90;;;;;;5062224;28;20051;-43
2023/10/15 04:51:13;;;;;;;7.93;6.53;;;7.20;99.90;;;;;;5063523;28;20362;-42
2023/10/15 04:53:50;;;;;;;4.88;4.13;;;7.30;99.90;;;;;;5061686;28;20053;-43
2023/10/15 04:56:15;;;;;;;3.60;3.38;;;7.30;99.90;;;;;;5060825;28;20450;-42
2023/10/15 04:58:41;;;;;;;4.43;2.85;;;7.30;99.90;;;;;;5063337;28;20063;-42
2023/10/15 05:01:08;;;;;;;4.57;3.70;;;7.30;99.90;;;;;;5061918;28;20387;-44
2023/10/15 05:03:36;;;;;;;3.55;1.48;;;7.30;99.90;;;;;;5054394;28;20143;-43
2023/10/15 05:06:03;;;;;;;2.97;0.98;;;7.30;99.90;;;;;;5033416;28;20045;-43
2023/10/15 05:08:29;;;;;;;2.25;0.45;;;7.30;99.90;;;;;;5059232;28;20134;-43
2023/10/15 05:10:55;;;;;;;1.65;0.30;;;7.30;99.90;;;;;;5061620;28;20047;-42
2023/10/15 05:13:21;;;;;;;1.90;0.40;;;7.30;99.90;;;;;;5058646;28;20367;-43
2023/10/15 05:15:50;;;;;;;3.30;0.55;;;7.20;99.90;;;;;;5057813;28;20076;-43
2023/10/15 05:18:18;;;;;;;6.38;0.50;;;7.20;99.90;;;;;;5044928;28;20144;-43
2023/10/15 05:20:47;;;;;;;3.72;0.45;;;7.20;99.90;;;;;;5057620;28;20048;-43
2023/10/15 05:23:13;;;;;;;2.20;0.35;;;7.20;99.90;;;;;;5061574;28;20578;-43
2023/10/15 05:25:39;;;;;;;1.70;0.55;;;7.10;99.90;;;;;;5059505;28;20048;-42
2023/10/15 05:28:06;;;;;;;2.80;0.45;;;7.10;99.90;;;;;;5062244;28;20051;-43
2023/10/15 05:30:32;;;;;;;4.70;0.50;;;7.10;99.90;;;;;;5056837;28;20049;-42
2023/10/15 05:33:00;;;;;;;3.33;0.45;;;7.00;99.90;;;;;;5062417;28;20048;-43
2023/10/15 05:35:27;;;;;;;6.35;0.40;;;7.00;99.90;;;;;;5054299;28;20132;-43
2023/10/15 05:37:54;;;;;;;4.47;0.52;;;6.90;99.90;;;;;;5042656;28;20053;-42
2023/10/15 05:40:21;;;;;;;1.92;0.30;;;6.90;99.90;;;;;;5059754;28;20392;-42
2023/10/15 05:42:47;;;;;;;5.40;3.10;;;6.90;99.90;;;;;;5053883;28;20802;-42
2023/10/15 05:45:14;;;;;;;5.78;5.28;;;6.90;99.90;;;;;;5055976;28;20502;-42
2023/10/15 05:47:44;;;;;;;7.28;6.72;;;6.80;99.90;;;;;;5058530;28;20560;-40
2023/10/15 05:50:12;;;;;;;5.47;5.03;;;6.80;99.90;;;;;;5039403;28;20083;-41
2023/10/15 05:52:38;;;;;;;7.25;6.72;;;6.80;99.90;;;;;;5057338;28;20495;-42
2023/10/15 05:55:11;;;;;;;6.78;6.32;;;6.80;99.90;;;;;;5057156;28;20078;-43
2023/10/15 05:57:37;;;;;;;13.43;12.73;;;6.80;99.90;;;;;;5059732;28;20117;-43
2023/10/15 06:00:18;;;;;;;10.85;10.20;;;6.80;99.90;;;;;;5061185;28;20147;-42
2023/10/15 06:02:48;;;;;;;12.00;11.30;;;6.90;99.90;;;;;;5056926;28;20058;-42
2023/10/15 06:05:14;;;;;;;8.25;7.63;;;6.90;99.90;;;;;;5061927;28;20044;-41
2023/10/15 06:07:44;;;;;;;8.45;7.95;;;6.90;99.90;;;;;;5062750;28;20073;-41
2023/10/15 06:10:13;;;;;;;8.80;8.32;;;7.00;99.90;;;;;;5065465;28;20236;-43
2023/10/15 06:12:40;;;;;;;9.23;8.60;;;7.00;99.90;;;;;;5061046;28;20060;-43
2023/10/15 06:15:06;;;;;;;4.95;3.60;;;7.00;99.90;;;;;;5064602;28;20107;-42
2023/10/15 06:17:33;;;;;;;4.63;0.35;;;7.00;99.90;;;;;;5058343;28;20136;-42
2023/10/15 06:20:12;;;;;;;6.57;6.03;;;7.00;99.90;;;;;;5061646;28;20105;-43
2023/10/15 06:22:41;;;;;;;3.60;3.40;;;7.00;99.90;;;;;;5060495;28;20066;-42
2023/10/15 06:25:16;;;;;;;3.08;2.25;;;7.00;99.90;;;;;;5061994;28;20056;-43
2023/10/15 06:27:42;;;;;;;4.95;3.72;;;7.00;99.90;;;;;;5068579;28;20052;-43
2023/10/15 06:30:14;;;;;;;3.25;3.13;;;7.00;99.90;;;;;;5082572;28;20048;-43
2023/10/15 06:32:47;;;;;;;5.35;4.95;;;7.00;99.90;;;;;;5080808;28;20489;-43
2023/10/15 06:35:18;;;;;;;1.98;1.02;;;7.00;99.90;;;;;;5068585;28;20056;-39
2023/10/15 06:37:48;;;;;;;3.75;3.35;;;7.00;99.90;;;;;;5046298;28;20417;-44
2023/10/15 06:40:17;;;;;;;2.63;0.30;;;7.00;99.90;;;;;;5071626;28;20198;-43
2023/10/15 06:42:44;;;;;;;1.85;0.30;;;7.00;99.90;;;;;;5081970;28;20052;-43
2023/10/15 06:45:10;;;;;;;1.40;0.20;;;7.10;99.90;;;;;;5072946;28;20060;-42
2023/10/15 06:47:37;;;;;;;2.05;0.20;;;7.10;99.90;;;;;;5083439;28;20182;-43
2023/10/15 06:50:07;;;;;;;2.10;0.20;;;7.10;99.90;;;;;;5066227;28;20059;-43
2023/10/15 06:52:38;;;;;;;1.58;0.20;;;7.10;99.90;;;;;;5073876;28;20051;-43
2023/10/15 06:55:07;;;;;;;0.65;0.17;;;7.10;99.90;;;;;;5072602;28;20044;-43
2023/10/15 06:57:38;;;;;;;0.60;0.10;;;7.10;99.90;;;;;;5078053;28;20566;-42
2023/10/15 07:00:06;;;;;;;2.22;0.30;;;7.10;99.90;;;;;;5073152;28;20083;-43
2023/10/15 07:02:31;;;;;;;2.38;0.30;;;7.10;99.90;;;;;;5081282;28;20509;-43
2023/10/15 07:05:00;;;;;;;1.08;0.20;;;7.10;99.90;;;;;;5070219;28;20764;-43
2023/10/15 07:07:26;;;;;;;1.42;0.28;;;7.10;99.90;;;;;;5079594;28;20052;-43
2023/10/15 07:09:52;;;;;;;2.10;0.25;;;7.10;99.90;;;;;;5071325;28;20050;-43
2023/10/15 07:12:18;;;;;;;1.88;0.20;;;7.20;99.90;;;;;;5074018;28;20057;-43
2023/10/15 07:14:44;;;;;;;0.77;0.20;;;7.20;99.90;;;;;;5066855;28;20190;-40
2023/10/15 07:17:10;;;;;;;0.55;0.13;;;7.30;99.90;;;;;;5082324;28;20056;-41
2023/10/15 07:19:36;;;;;;;1.20;0.13;;;7.40;99.90;;;;;;5080697;28;20052;-41
2023/10/15 07:22:01;;;;;;;2.10;0.10;;;7.50;99.90;;;;;;5059852;28;20048;-41
2023/10/15 07:24:30;;;;;;;1.27;0.20;;;7.60;99.90;;;;;;5057877;28;20074;-41
2023/10/15 07:26:55;;;;;;;0.70;0.15;;;7.50;99.90;;;;;;5055367;28;20040;-41
2023/10/15 07:29:21;;;;;;;0.88;0.20;;;7.50;99.90;;;;;;5059485;28;20094;-42
2023/10/15 07:31:48;;;;;;;2.33;0.30;;;7.50;99.90;;;;;;5052759;28;20060;-42
2023/10/15 07:34:13;;;;;;;1.42;0.25;;;7.50;99.90;;;;;;5057634;28;20114;-42
2023/10/15 07:36:39;;;;;;;1.27;0.20;;;7.50;99.90;;;;;;5054174;28;20426;-41
2023/10/15 07:39:06;;;;;;;2.03;0.20;;;7.60;99.90;;;;;;5060623;28;20049;-42
2023/10/15 07:41:34;;;;;;;1.08;0.20;;;7.60;99.90;;;;;;5058127;28;20486;-42
2023/10/15 07:44:03;;;;;;;1.95;0.17;;;7.60;99.90;;;;;;5050317;28;20290;-42
2023/10/15 07:46:30;;;;;;;2.70;0.30;;;7.70;99.90;;;;;;5046370;28;20045;-41
2023/10/15 07:48:59;;;;;;;2.53;0.30;;;7.70;99.90;;;;;;5025891;28;20113;-41
2023/10/15 07:51:27;;;;;;;1.13;0.20;;;7.70;99.90;;;;;;5053183;28;20059;-42
2023/10/15 07:53:54;;;;;;;1.33;0.20;;;7.70;99.90;;;;;;5055477;28;20048;-44
2023/10/15 07:56:21;;;;;;;1.52;0.10;;;7.80;99.90;;;;;;5057861;28;20139;-42
2023/10/15 07:58:48;;;;;;;2.17;0.30;;;7.80;99.90;;;;;;5036086;28;20226;-42
2023/10/15 08:01:14;;;;;;;1.67;0.30;;;7.90;99.90;;;;;;5052471;28;20118;-44
2023/10/15 08:03:40;;;;;;;2.95;0.40;;;8.10;99.90;;;;;;5056252;28;20044;-42
2023/10/15 08:06:07;;;;;;;0.98;0.20;;;8.30;99.90;;;;;;5054489;28;20060;-44
2023/10/15 08:08:34;;;;;;;0.93;0.28;;;8.50;99.90;;;;;;5058999;28;20050;-42
2023/10/15 08:11:01;;;;;;;1.25;0.28;;;8.70;99.90;;;;;;5052724;28;20063;-44
2023/10/15 08:13:26;;;;;;;1.95;0.40;;;8.70;99.90;;;;;;5051803;28;20071;-46
2023/10/15 08:15:52;;;;;;;2.80;0.35;;;8.80;99.90;;;;;;5047115;28;20065;-42
2023/10/15 08:18:18;;;;;;;2.30;0.38;;;8.70;99.90;;;;;;5057435;28;20090;-42
2023/10/15 08:20:43;;;;;;;0.70;0.22;;;8.50;99.90;;;;;;5056473;28;20052;-43
2023/10/15 08:23:10;;;;;;;4.05;0.47;;;8.30;99.90;;;;;;5043599;28;20056;-42
2023/10/15 08:25:36;;;;;;;3.13;0.38;;;8.20;99.90;;;;;;5060504;28;20048;-42
2023/10/15 08:28:03;;;;;;;2.55;0.40;;;8.20;99.90;;;;;;5051524;28;20614;-42
2023/10/15 08:30:31;;;;;;;1.27;0.20;;;8.10;99.90;;;;;;5057111;28;20051;-42
2023/10/15 08:32:56;;;;;;;1.73;0.35;;;8.10;99.90;;;;;;5041805;28;20445;-42
2023/10/15 08:35:22;;;;;;;1.38;0.20;;;8.20;99.90;;;;;;5053798;28;20079;-42
2023/10/15 08:37:47;;;;;;;0.65;0.10;;;8.30;99.90;;;;;;5065664;28;20052;-42
2023/10/15 08:40:17;;;;;;;0.47;0.20;;;8.30;99.90;;;;;;5050554;28;20052;-42
2023/10/15 08:42:57;;;;;;;1.88;0.20;;;8.40;99.90;;;;;;5053400;28;20510;-42
2023/10/15 08:45:24;;;;;;;0.85;0.20;;;8.50;99.90;;;;;;5049545;28;20410;-42
2023/10/15 08:47:51;;;;;;;0.77;0.20;;;8.60;99.90;;;;;;5061827;28;20128;-43
2023/10/15 08:50:20;;;;;;;1.80;0.20;;;8.70;99.90;;;;;;5056321;28;20131;-42
2023/10/15 08:52:48;;;;;;;0.70;0.20;;;8.80;99.90;;;;;;5060327;28;20076;-42
2023/10/15 08:55:14;;;;;;;1.52;0.20;;;8.90;99.90;;;;;;5043676;28;20056;-43
2023/10/15 08:57:41;;;;;;;0.65;0.20;;;8.90;99.90;;;;;;5062359;28;20056;-43
2023/10/15 09:00:25;;;;;;;0.60;0.20;;;9.10;99.90;;;;;;5040704;28;20049;-43
2023/10/15 09:02:56;;;;;;;3.35;1.30;;;9.20;99.90;;;;;;5059647;28;20044;-43
2023/10/15 09:05:22;;;;;;;2.05;0.50;;;9.50;99.90;;;;;;5045402;28;20505;-42
2023/10/15 09:07:49;;;;;;;1.25;0.70;;;9.80;99.90;;;;;;5066628;28;20098;-43
2023/10/15 09:10:16;;;;;;;2.47;0.80;;;9.80;99.90;;;;;;5061628;28;20405;-43
2023/10/15 09:12:42;;;;;;;3.22;0.77;;;9.60;99.90;;;;;;5061651;28;20212;-43
2023/10/15 09:15:17;;;;;;;3.42;0.60;;;9.40;99.90;;;;;;5059367;28;20048;-43
2023/10/15 09:17:55;;;;;;;2.20;0.40;;;9.10;99.90;;;;;;5053967;28;20579;-42
2023/10/15 09:20:28;;;;;;;2.20;0.55;;;8.90;99.90;;;;;;5062171;28;20141;-43
2023/10/15 09:22:59;;;;;;;1.50;0.30;;;8.70;99.90;;;;;;5063498;28;20082;-42
2023/10/15 09:25:26;;;;;;;1.00;0.22;;;8.60;99.90;;;;;;5080484;28;20486;-42
2023/10/15 09:27:55;;;;;;;2.40;0.35;;;8.50;99.90;;;;;;5070625;28;20049;-43
2023/10/15 09:30:22;;;;;;;1.00;0.30;;;8.40;99.90;;;;;;5076851;28;20048;-43
2023/10/15 09:32:48;;;;;;;4.95;0.40;;;8.40;99.90;;;;;;5074172;28;20052;-43
2023/10/15 09:35:14;;;;;;;2.60;0.40;;;8.50;99.90;;;;;;5084437;28;20098;-43
2023/10/15 09:37:40;;;;;;;0.95;0.32;;;8.60;99.90;;;;;;5062713;28;20430;-43
2023/10/15 09:40:10;;;;;;;3.10;0.32;;;8.80;99.90;;;;;;5076689;28;20055;-42
2023/10/15 09:42:39;;;;;;;2.90;0.40;;;8.90;99.90;;;;;;5085658;28;20589;-43
2023/10/15 09:45:07;;;;;;;3.53;0.50;;;9.10;99.90;;;;;;5087681;28;20056;-43
2023/10/15 09:47:33;;;;;;;2.25;0.38;;;9.30;99.90;;;;;;5075551;28;20047;-43
2023/10/15 09:50:01;;;;;;;6.05;0.80;;;9.50;99.90;;;;;;5077407;28;20059;-42
2023/10/15 09:52:29;;;;;;;2.42;0.63;;;9.60;99.90;;;;;;5064010;28;20471;-43
2023/10/15 09:54:57;;;;;;;2.25;0.55;;;9.70;99.90;;;;;;5083604;28;20131;-43
2023/10/15 09:57:25;;;;;;;4.22;0.63;;;9.70;99.90;;;;;;5075035;28;20159;-42
2023/10/15 09:59:53;;;;;;;3.78;0.80;;;9.80;99.90;;;;;;5078996;28;20044;-42
2023/10/15 10:02:28;;;;;;;2.05;0.65;;;9.90;99.90;;;;;;5069852;28;20067;-43
2023/10/15 10:05:41;;;;;;;4.78;0.80;;;10.00;99.90;;;;;;5080098;28;20067;-44
2023/10/15 10:08:21;;;;;;;;;;;10.20;99.90;;;;;;5079594;28;20170;-42
2023/10/15 10:10:51;;;;;;;2.75;1.40;;;10.30;99.90;;;;;;5078452;28;19925;-43
2023/10/15 10:13:49;;;;;;;5.18;1.38;;;10.50;99.90;;;;;;5077355;28;20597;-43
2023/10/15 10:16:24;;;;;;;5.28;1.50;;;10.60;99.90;;;;;;5065663;28;20819;-43
2023/10/15 10:18:50;;;;;;;2.80;1.10;;;10.70;99.90;;;;;;5082415;28;20084;-42
2023/10/15 10:21:16;;;;;;;6.50;1.00;;;10.70;99.90;;;;;;5087086;28;20052;-43
2023/10/15 10:23:43;;;;;;;2.13;0.50;;;10.80;99.90;;;;;;5072959;28;20493;-42
2023/10/15 10:26:13;;;;;;;2.13;0.45;;;10.80;99.90;;;;;;5065387;28;20543;-42
2023/10/15 10:28:40;;;;;;;2.30;0.40;;;10.80;99.90;;;;;;5066013;28;20059;-43
2023/10/15 10:31:07;;;;;;;1.52;0.35;;;10.80;99.90;;;;;;5069702;28;20516;-44
2023/10/15 10:33:42;;;;;;;3.15;0.30;;;10.80;99.90;;;;;;5071382;28;20512;-42
2023/10/15 10:36:28;;;;;;;4.35;0.40;;;10.80;99.90;;;;;;5065674;28;20057;-42
2023/10/15 10:38:56;;;;;;;2.85;0.60;;;10.80;99.90;;;;;;5067448;28;20089;-42
2023/10/15 10:41:34;;;;;;;3.20;0.30;;;10.90;99.90;;;;;;5050516;28;20056;-42
2023/10/15 10:44:00;;;;;;;6.13;0.40;;;10.90;99.90;;;;;;5062284;28;20048;-42
2023/10/15 10:46:25;;;;;;;2.83;0.38;;;11.00;99.90;;;;;;5054705;28;20056;-41
2023/10/15 10:49:05;;;;;;;3.85;0.40;;;11.00;99.90;;;;;;5056949;28;20187;-42
2023/10/15 10:51:33;;;;;;;6.30;0.65;;;11.10;99.90;;;;;;5044673;28;20053;-42
2023/10/15 10:53:59;;;;;;;5.53;0.60;;;11.10;99.90;;;;;;5045001;28;20068;-42
2023/10/15 10:56:39;;;;;;;3.28;0.50;;;11.10;99.90;;;;;;5051040;28;20053;-42
2023/10/15 10:59:15;;;;;;;3.28;0.55;;;11.10;99.90;;;;;;5052074;28;21734;-42
2023/10/15 11:01:45;;;;;;;2.55;0.60;;;10.90;99.90;;;;;;5065031;28;20569;-42
2023/10/15 11:04:15;;;;;;;4.18;0.50;;;11.00;99.90;;;;;;5059997;28;20063;-42
2023/10/15 11:06:42;;;;;;;8.30;0.70;;;11.20;99.90;;;;;;5061183;28;20608;-41
2023/10/15 11:09:15;;;;;;;6.18;0.50;;;11.40;99.90;;;;;;5049802;28;20068;-43
2023/10/15 11:11:45;;;;;;;2.75;0.40;;;11.70;99.90;;;;;;5054555;28;20484;-42
2023/10/15 11:14:12;;;;;;;3.63;0.35;;;11.90;99.90;;;;;;5054854;28;20052;-42
2023/10/15 11:16:40;;;;;;;3.03;0.40;;;11.90;99.90;;;;;;5050936;28;20064;-42
2023/10/15 11:19:28;;;;;;;1.58;0.20;;;12.00;99.90;;;;;;5053926;28;20511;-43
2023/10/15 11:21:54;;;;;;;3.92;0.30;;;11.90;99.90;;;;;;5054560;28;20041;-42
2023/10/15 11:24:25;;;;;;;4.55;0.40;;;11.80;99.90;;;;;;5079993;28;20109;-43
2023/10/15 11:26:54;;;;;;;1.80;0.20;;;11.20;99.90;;;;;;5079419;28;20602;-42
2023/10/15 11:29:22;;;;;;;2.05;0.40;;;10.60;99.90;;;;;;5079583;28;20056;-43
2023/10/15 11:31:49;;;;;;;1.98;0.13;;;10.00;99.90;;;;;;5067769;28;20291;-43
2023/10/15 11:34:19;;;;;;;5.55;1.40;;;9.60;99.90;;;;;;5067908;28;20508;-42
2023/10/15 11:36:49;;;;;;;3.97;0.60;;;9.40;99.90;;;;;;5057683;28;20053;-42
2023/10/15 11:39:19;;;;;;;3.50;0.25;;;9.40;99.90;;;;;;5069225;28;20050;-42
2023/10/15 11:41:51;;;;;;;3.63;0.28;;;9.40;99.90;;;;;;5060122;28;20414;-42
2023/10/15 11:44:25;;;;;;;1.35;0.20;;;9.50;99.90;;;;;;5078282;28;20059;-41
2023/10/15 11:46:54;;;;;;;3.60;0.47;;;9.80;99.90;;;;;;5067623;28;20591;-42
2023/10/15 11:49:22;;;;;;;2.50;0.10;;;10.30;99.90;;;;;;5070387;28;20072;-42
2023/10/15 11:51:49;;;;;;;2.10;0.30;;;10.70;99.90;;;;;;5068383;28;20138;-43
2023/10/15 11:54:16;;;;;;;4.63;0.20;;;11.10;99.90;;;;;;5085531;28;20052;-42
2023/10/15 11:56:48;;;;;;;1.17;0.30;;;11.40;99.90;;;;;;5087536;28;20519;-42
2023/10/15 11:59:13;;;;;;;2.08;0.20;;;11.80;99.90;;;;;;5075835;28;20051;-42
2023/10/15 12:01:39;;;;;;;2.30;0.68;;;12.10;99.90;;;;;;5079788;28;20575;-43
2023/10/15 12:04:07;;;;;;;3.15;0.45;;;12.50;99.90;;;;;;5076969;28;20054;-42
2023/10/15 12:06:33;;;;;;;1.48;0.20;;;12.70;99.90;;;;;;5069250;28;20044;-43
2023/10/15 12:08:58;;;;;;;2.35;0.20;;;13.10;99.90;;;;;;5072178;28;20064;-43
2023/10/15 12:11:25;;;;;;;5.15;0.40;;;13.50;99.90;;;;;;5070996;28;21642;-42
2023/10/15 12:13:51;;;;;;;1.80;0.30;;;13.90;99.90;;;;;;5075771;28;20252;-42
2023/10/15 12:16:17;;;;;;;9.77;0.55;;;14.20;99.90;;;;;;5062127;28;20048;-42
2023/10/15 12:18:43;;;;;;;2.35;0.20;;;14.40;99.90;;;;;;5076902;28;20093;-43
2023/10/15 12:21:09;;;;;;;4.72;0.25;;;14.60;99.90;;;;;;5085057;28;20474;-43
2023/10/15 12:23:34;;;;;;;2.92;0.30;;;14.50;99.90;;;;;;5076164;28;20468;-42
2023/10/15 12:26:00;;;;;;;1.20;0.20;;;14.30;99.90;;;;;;5061932;28;20102;-42
2023/10/15 12:28:27;;;;;;;2.85;0.20;;;14.10;99.90;;;;;;5065382;28;20155;-43
2023/10/15 12:30:54;;;;;;;1.70;0.20;;;14.00;99.90;;;;;;5063013;28;20415;-42
2023/10/15 12:33:19;;;;;;;3.50;0.20;;;14.30;99.90;;;;;;5060438;28;20532;-42
2023/10/15 12:35:47;;;;;;;2.20;0.40;;;14.60;99.90;;;;;;5058470;28;20053;-43
2023/10/15 12:38:16;;;;;;;2.95;0.30;;;15.00;99.90;;;;;;5057729;28;20072;-43
2023/10/15 12:40:45;;;;;;;2.20;0.20;;;15.40;99.90;;;;;;5063295;28;20049;-42
2023/10/15 12:43:17;;;;;;;2.05;0.20;;;15.70;99.90;;;;;;5065416;28;20052;-43
2023/10/15 12:45:46;;;;;;;1.45;0.10;;;16.10;99.90;;;;;;5060506;28;20127;-35
2023/10/15 12:48:11;;;;;;;1.77;0.20;;;16.40;99.90;;;;;;5062077;28;20494;-33
2023/10/15 12:50:37;;;;;;;1.73;0.40;;;16.80;99.90;;;;;;5063035;28;20060;-35
2023/10/15 12:53:03;;;;;;;2.08;0.50;;;17.00;99.90;;;;;;5065480;28;20068;-33
2023/10/15 12:55:29;;;;;;;1.38;0.20;;;17.20;99.90;;;;;;5061472;28;20452;-33
2023/10/15 12:57:55;;;;;;;2.10;0.20;;;17.30;99.90;;;;;;5062831;28;20044;-33
2023/10/15 13:00:21;;;;;;;1.40;0.47;;;17.60;99.90;;;;;;5065220;28;20053;-33
2023/10/15 13:02:53;;;;;;;3.85;0.30;;;17.60;99.90;;;;;;5060364;28;20038;-34
2023/10/15 13:05:21;;;;;;;4.72;0.30;;;18.00;99.90;;;;;;5060484;28;20087;-33
2023/10/15 13:07:48;;;;;;;1.58;0.20;;;18.30;99.90;;;;;;5055150;28;20048;-33
2023/10/15 13:10:17;;;;;;;3.40;0.30;;;18.20;99.90;;;;;;5064238;28;20056;-33
2023/10/15 13:12:44;;;;;;;3.10;0.20;;;17.80;99.90;;;;;;5063327;28;20457;-33
2023/10/15 13:15:10;;;;;;;0.77;0.20;;;17.40;99.90;;;;;;5055084;28;20138;-33
2023/10/15 13:17:39;;;;;;;2.42;0.10;;;17.00;99.90;;;;;;5056903;28;20573;-33
2023/10/15 13:20:06;;;;;;;1.55;0.20;;;17.00;99.90;;;;;;5060459;28;20110;-34
2023/10/15 13:22:35;;;;;;;3.45;0.35;;;17.30;99.90;;;;;;5059752;28;20494;-33
2023/10/15 13:25:01;;;;;;;2.63;0.30;;;17.20;99.90;;;;;;5061581;28;22698;-34
2023/10/15 13:27:27;;;;;;;2.78;0.40;;;16.60;99.90;;;;;;5042847;28;20052;-35
2023/10/15 13:29:53;;;;;;;2.75;0.38;;;16.00;99.90;;;;;;5059592;28;20079;-33
2023/10/15 13:32:20;;;;;;;0.35;0.10;;;16.00;99.90;;;;;;5060555;28;20579;-33
2023/10/15 13:34:45;;;;;;;2.78;0.20;;;16.60;99.90;;;;;;5055982;28;20056;-33